Terminal Aerodrome Forecast
Issued by NWS

Home | Current Version | Previous Version | Text Only | Print | Product List | Glossary On
Versions: 1 2 3 4 5 6 7 8 9 10 11 12 13 14 15 16 17 18 19 20 21
000
FTUS43 KDMX 240520
TAFOTM
TAF
KOTM 240520Z 2406/2506 19004KT 1/4SM FG VV002
     FM241500 18005KT 2SM BR BKN004
     FM241700 20010KT P6SM BKN012
     FM242000 22010KT P6SM SCT015 SCT250=

USA.gov is the U.S. government's official web portal to all federal, state and local government web resources and services.